Elmer, LA (71424)

12:29 PM CDT on March 24, 2017 (GMT -0500)
Gardner | | Change Station

Elev 184 ft 31.27 °N, 92.68 °W | Updated 4 seconds ago

Mostly Cloudy
Mostly Cloudy
76.1 °F
Feels Like 78 °F
N
0.7
Wind Variable Wind from West
Gusts 3.8 mph

Today
High -- | Low -- °F
--% Chance of Precip.
Yesterday
High -- | Low -- °F
Precip. -- in
Pressure 30.12 in
Visibility 10.0 miles
Clouds Few 2500 ft
Scattered Clouds 3000 ft
Mostly Cloudy 3600 ft
Heat Index 78 °F
Dew Point 60 °F
Humidity 58%
Rainfall 0.00 in
Snow Depth Not available.
7:09 AM 7:24 PM
Waning Crescent, 14% visible
METAR KAEX 241653Z 17013KT 10SM -RA FEW025 SCT030 BKN036 23/18 A3011 RMK AO2 SLP199 P0000 T02330178
Pressure 30.12 in
Visibility 10.0 miles
Clouds Few 2500 ft
Scattered Clouds 3000 ft
Mostly Cloudy 3600 ft
Heat Index 78 °F
Dew Point 60 °F
Humidity 58%
Rainfall 0.00 in
Snow Depth Not available.
7:09 AM 7:24 PM
Waning Crescent, 14% visible
METAR KAEX 241653Z 17013KT 10SM -RA FEW025 SCT030 BKN036 23/18 A3011 RMK AO2 SLP199 P0000 T02330178

Get Severe Weather Alerts

Thanks for signing up!

Be on the lookout for a verification email in your inbox.

You'll start receiving the daily forecast at 8 AM.

×

10-Day Weather Forecast

Almanac

Astronomy

Mar. 24, 2017 Rise Set
Actual Time
Civil Twilight
Nautical Twilight
Astronomical Twilight
Moon
Length of Visible Light
Length of Day
Tomorrow will be .
, % of the Moon is Illuminated

Today's Extremes

State Highs State Lows

Community

WunderPhotos

Upload Photos

1,962,540 photos uploaded!

WunderBlog® & News

Nearby

Air Quality

  Air Quality AQ Index Pollutant
Not available.

Snow Depth

Station Depth Elevation

Earthquake Activity

City Distance Mag. Time & Date
Minimum magnitude displayed is 2.5.

Earthquake Activity

City Distance Mag. Time & Date
Minimum magnitude displayed is 2.5.

Coastal Water Temperatures

Place Temperature

Stations

Nearby Weather Stations

Station Location Temp. Windchill Dew Point Humidity Wind Precip. Elev Updated Type
                   

Watches & Warnings

There are currently no watches in effect.